Time,TemperatureF,DewpointF,PressureIn,WindDirection,WindDirectionDegrees,WindSpeedMPH,WindSpeedGustMPH,Humidity,HourlyPrecipIn,Conditions,Clouds,dailyrainin,SoftwareType,DateUTC
2013-01-20 00:00:00,38.8,30.3,29.77,WSW,251,0.0,0.0,71,0.00,,---,0.00,VWS V14.00,2013-01-20 08:00:00,
2013-01-20 00:05:00,38.8,30.6,29.80,WSW,251,0.0,0.0,72,0.00,,---,0.00,VWS V14.00,2013-01-20 08:05:00,
2013-01-20 00:10:00,38.8,30.6,29.80,WSW,250,0.0,0.0,72,0.00,,---,0.00,VWS V14.00,2013-01-20 08:10:00,
2013-01-20 00:15:00,39.0,30.8,29.80,WSW,251,0.0,0.0,72,0.00,,---,0.00,VWS V14.00,2013-01-20 08:15:00,
2013-01-20 00:20:00,39.0,30.8,29.80,WSW,251,0.0,0.0,72,0.00,,---,0.00,VWS V14.00,2013-01-20 08:20:00,
2013-01-20 00:25:00,39.0,30.8,29.80,WSW,251,0.0,0.0,72,0.00,,---,0.00,VWS V14.00,2013-01-20 08:25:00,
2013-01-20 00:30:00,39.0,30.8,29.80,WSW,250,0.0,0.0,72,0.00,,---,0.00,VWS V14.00,2013-01-20 08:30:00,
2013-01-20 00:35:00,39.2,31.0,29.80,WSW,251,0.0,0.0,72,0.00,,---,0.00,VWS V14.00,2013-01-20 08:35:00,
2013-01-20 00:40:00,39.2,31.0,29.80,West,277,0.0,0.0,72,0.00,,---,0.00,VWS V14.00,2013-01-20 08:40:00,
2013-01-20 00:45:00,39.2,31.0,29.80,WNW,284,0.0,0.0,72,0.00,,---,0.00,VWS V14.00,2013-01-20 08:45:00,
2013-01-20 00:50:00,39.2,31.0,29.80,WNW,283,0.0,0.0,72,0.00,,---,0.00,VWS V14.00,2013-01-20 08:50:00,
2013-01-20 00:55:00,39.2,31.0,29.80,WNW,284,0.0,0.0,72,0.00,,---,0.00,VWS V14.00,2013-01-20 08:55:00,
2013-01-20 01:00:00,39.2,31.0,29.80,WNW,284,0.0,0.0,72,0.00,,---,0.00,VWS V14.00,2013-01-20 09:00:00,
2013-01-20 01:05:00,39.0,30.8,29.80,WNW,282,0.0,0.0,72,0.00,,---,0.00,VWS V14.00,2013-01-20 09:05:00,
2013-01-20 01:10:00,38.8,30.6,29.80,WNW,282,0.0,0.0,72,0.00,,---,0.00,VWS V14.00,2013-01-20 09:10:00,
2013-01-20 01:15:00,38.8,30.6,29.80,WNW,282,0.0,0.0,72,0.00,,---,0.00,VWS V14.00,2013-01-20 09:15:00,
2013-01-20 01:20:00,38.8,30.6,29.80,WNW,282,0.0,0.0,72,0.00,,---,0.00,VWS V14.00,2013-01-20 09:20:00,
2013-01-20 01:25:00,38.8,30.6,29.80,West,275,0.0,0.0,72,0.00,,---,0.00,VWS V14.00,2013-01-20 09:25:00,
2013-01-20 01:30:00,38.7,30.4,29.80,West,275,0.0,0.0,72,0.00,,---,0.00,VWS V14.00,2013-01-20 09:30:00,
2013-01-20 01:35:00,38.5,30.2,29.80,West,275,0.0,0.0,72,0.00,,---,0.00,VWS V14.00,2013-01-20 09:35:00,
2013-01-20 01:40:00,38.5,30.2,29.80,West,277,0.0,0.0,72,0.00,,---,0.00,VWS V14.00,2013-01-20 09:40:00,
2013-01-20 01:45:00,38.5,30.2,29.80,West,277,0.0,0.0,72,0.00,,---,0.00,VWS V14.00,2013-01-20 09:45:00,
2013-01-20 01:50:00,38.5,30.2,29.80,SSW,197,0.0,0.0,72,0.00,,---,0.00,VWS V14.00,2013-01-20 09:50:00,
2013-01-20 01:55:00,38.5,30.2,29.80,SSW,197,0.0,0.0,72,0.00,,---,0.00,VWS V14.00,2013-01-20 09:55:00,
2013-01-20 02:00:00,38.1,29.9,29.80,SSW,197,0.0,0.0,72,0.00,,---,0.00,VWS V14.00,2013-01-20 10:00:00,
2013-01-20 02:05:00,38.1,29.9,29.80,SSW,197,0.0,0.0,72,0.00,,---,0.00,VWS V14.00,2013-01-20 10:05:00,
2013-01-20 02:10:00,38.1,29.9,29.80,SSW,197,0.0,0.0,72,0.00,,---,0.00,VWS V14.00,2013-01-20 10:10:00,
2013-01-20 02:15:00,38.1,29.9,29.80,SSW,197,0.0,0.0,72,0.00,,---,0.00,VWS V14.00,2013-01-20 10:15:00,
2013-01-20 02:20:00,38.1,29.9,29.80,SSW,197,0.0,0.0,72,0.00,,---,0.00,VWS V14.00,2013-01-20 10:20:00,
2013-01-20 02:25:00,38.3,30.1,29.80,WNW,290,0.0,0.0,72,0.00,,---,0.00,VWS V14.00,2013-01-20 10:25:00,
2013-01-20 02:30:00,38.3,30.1,29.80,WNW,290,0.0,0.0,72,0.00,,---,0.00,VWS V14.00,2013-01-20 10:30:00,
2013-01-20 02:35:00,38.1,29.9,29.80,WNW,282,0.0,0.0,72,0.00,,---,0.00,VWS V14.00,2013-01-20 10:35:00,
2013-01-20 02:40:00,38.1,29.9,29.80,West,278,0.0,0.0,72,0.00,,---,0.00,VWS V14.00,2013-01-20 10:40:00,
2013-01-20 02:45:00,37.9,29.7,29.80,West,278,0.0,0.0,72,0.00,,---,0.00,VWS V14.00,2013-01-20 10:45:00,
2013-01-20 02:50:00,38.1,29.9,29.80,WNW,303,0.0,0.0,72,0.00,,---,0.00,VWS V14.00,2013-01-20 10:50:00,
2013-01-20 02:55:00,38.1,29.9,29.80,WNW,303,0.0,0.0,72,0.00,,---,0.00,VWS V14.00,2013-01-20 10:55:00,
2013-01-20 03:00:00,38.1,29.9,29.80,WNW,303,0.0,0.0,72,0.00,,---,0.00,VWS V14.00,2013-01-20 11:00:00,
2013-01-20 03:05:00,38.1,29.9,29.77,WNW,303,0.0,0.0,72,0.00,,---,0.00,VWS V14.00,2013-01-20 11:05:00,
2013-01-20 03:10:00,37.9,29.7,29.77,WNW,303,0.0,0.0,72,0.00,,---,0.00,VWS V14.00,2013-01-20 11:10:00,
2013-01-20 03:15:00,37.9,29.7,29.77,NW,304,0.0,0.0,72,0.00,,---,0.00,VWS V14.00,2013-01-20 11:15:00,
2013-01-20 03:20:00,37.9,29.7,29.80,WNW,303,0.0,0.0,72,0.00,,---,0.00,VWS V14.00,2013-01-20 11:20:00,
2013-01-20 03:25:00,37.9,29.7,29.80,WNW,293,0.0,0.0,72,0.00,,---,0.00,VWS V14.00,2013-01-20 11:25:00,
2013-01-20 03:30:00,37.9,29.7,29.80,WNW,293,0.0,0.0,72,0.00,,---,0.00,VWS V14.00,2013-01-20 11:30:00,
2013-01-20 03:35:00,37.8,29.6,29.80,WNW,292,0.0,0.0,72,0.00,,---,0.00,VWS V14.00,2013-01-20 11:35:00,
2013-01-20 03:40:00,37.8,29.6,29.80,WNW,292,0.0,0.0,72,0.00,,---,0.00,VWS V14.00,2013-01-20 11:40:00,
2013-01-20 03:45:00,37.6,29.4,29.80,WNW,292,0.0,0.0,72,0.00,,---,0.00,VWS V14.00,2013-01-20 11:45:00,
2013-01-20 03:50:00,37.6,29.4,29.80,WNW,292,0.0,0.0,72,0.00,,---,0.00,VWS V14.00,2013-01-20 11:50:00,
2013-01-20 03:55:00,37.4,29.2,29.80,WNW,292,0.0,0.0,72,0.00,,---,0.00,VWS V14.00,2013-01-20 11:55:00,
2013-01-20 04:00:00,37.4,29.2,29.80,WNW,292,0.0,0.0,72,0.00,,---,0.00,VWS V14.00,2013-01-20 12:00:00,
2013-01-20 04:05:00,37.6,29.4,29.80,WNW,292,0.0,0.0,72,0.00,,---,0.00,VWS V14.00,2013-01-20 12:05:00,
2013-01-20 04:10:00,37.6,29.4,29.80,WNW,292,0.0,0.0,72,0.00,,---,0.00,VWS V14.00,2013-01-20 12:10:00,
2013-01-20 04:16:00,37.6,29.4,29.80,WNW,292,0.0,0.0,72,0.00,,---,0.00,VWS V14.00,2013-01-20 12:16:00,
2013-01-20 04:20:00,37.4,29.2,29.80,WNW,292,0.0,0.0,72,0.00,,---,0.00,VWS V14.00,2013-01-20 12:20:00,
2013-01-20 04:26:00,37.4,29.2,29.80,WNW,291,0.0,0.0,72,0.00,,---,0.00,VWS V14.00,2013-01-20 12:26:00,
2013-01-20 04:30:00,37.4,29.2,29.80,WNW,292,0.0,0.0,72,0.00,,---,0.00,VWS V14.00,2013-01-20 12:30:00,
2013-01-20 04:36:00,37.4,29.2,29.80,WNW,292,0.0,0.0,72,0.00,,---,0.00,VWS V14.00,2013-01-20 12:36:00,
2013-01-20 04:41:00,37.4,29.2,29.80,WNW,292,0.0,0.0,72,0.00,,---,0.00,VWS V14.00,2013-01-20 12:41:00,
2013-01-20 04:46:00,37.4,29.2,29.80,WNW,291,0.0,0.0,72,0.00,,---,0.00,VWS V14.00,2013-01-20 12:46:00,
2013-01-20 04:51:00,37.4,29.2,29.80,WNW,293,0.0,0.0,72,0.00,,---,0.00,VWS V14.00,2013-01-20 12:51:00,
2013-01-20 04:56:00,37.2,29.0,29.80,WNW,292,0.0,0.0,72,0.00,,---,0.00,VWS V14.00,2013-01-20 12:56:00,
2013-01-20 05:01:00,37.2,29.4,29.80,WNW,292,0.0,0.0,73,0.00,,---,0.00,VWS V14.00,2013-01-20 13:01:00,
2013-01-20 05:06:00,37.2,29.4,29.80,WNW,292,0.0,0.0,73,0.00,,---,0.00,VWS V14.00,2013-01-20 13:06:00,
2013-01-20 05:11:00,37.2,29.4,29.80,WNW,292,0.0,0.0,73,0.00,,---,0.00,VWS V14.00,2013-01-20 13:11:00,
2013-01-20 05:16:00,37.2,29.4,29.80,WNW,292,0.0,0.0,73,0.00,,---,0.00,VWS V14.00,2013-01-20 13:16:00,
2013-01-20 05:21:00,37.2,29.4,29.80,WNW,291,0.0,0.0,73,0.00,,---,0.00,VWS V14.00,2013-01-20 13:21:00,
2013-01-20 05:26:00,37.2,29.4,29.80,WNW,292,0.0,0.0,73,0.00,,---,0.00,VWS V14.00,2013-01-20 13:26:00,
2013-01-20 05:31:00,37.0,29.2,29.80,WNW,292,0.0,0.0,73,0.00,,---,0.00,VWS V14.00,2013-01-20 13:31:00,
2013-01-20 05:36:00,37.0,29.2,29.80,WNW,292,0.0,0.0,73,0.00,,---,0.00,VWS V14.00,2013-01-20 13:36:00,
2013-01-20 05:41:00,37.0,29.2,29.80,WNW,292,0.0,0.0,73,0.00,,---,0.00,VWS V14.00,2013-01-20 13:41:00,
2013-01-20 05:46:00,37.2,29.4,29.80,WNW,292,0.0,0.0,73,0.00,,---,0.00,VWS V14.00,2013-01-20 13:46:00,
2013-01-20 05:51:00,37.2,29.4,29.80,WNW,291,0.0,0.0,73,0.00,,---,0.00,VWS V14.00,2013-01-20 13:51:00,
2013-01-20 05:56:00,37.0,29.2,29.80,WNW,292,0.0,0.0,73,0.00,,---,0.00,VWS V14.00,2013-01-20 13:56:00,
2013-01-20 06:01:00,37.0,29.2,29.80,WNW,292,0.0,0.0,73,0.00,,---,0.00,VWS V14.00,2013-01-20 14:01:00,
2013-01-20 06:06:00,37.0,29.2,29.77,WNW,292,0.0,0.0,73,0.00,,---,0.00,VWS V14.00,2013-01-20 14:06:00,
2013-01-20 06:11:00,37.2,29.7,29.77,WNW,292,0.0,0.0,74,0.00,,---,0.00,VWS V14.00,2013-01-20 14:11:00,
2013-01-20 06:16:00,37.2,29.7,29.77,WNW,292,0.0,0.0,74,0.00,,---,0.00,VWS V14.00,2013-01-20 14:16:00,
2013-01-20 06:21:00,37.2,29.4,29.77,WNW,292,0.0,0.0,73,0.00,,---,0.00,VWS V14.00,2013-01-20 14:21:00,
2013-01-20 06:26:00,37.2,29.4,29.77,WNW,292,0.0,0.0,73,0.00,,---,0.00,VWS V14.00,2013-01-20 14:26:00,
2013-01-20 06:31:00,37.0,29.2,29.77,WNW,292,0.0,0.0,73,0.00,,---,0.00,VWS V14.00,2013-01-20 14:31:00,
2013-01-20 06:36:00,37.0,29.5,29.77,WNW,292,0.0,0.0,74,0.00,,---,0.00,VWS V14.00,2013-01-20 14:36:00,
2013-01-20 06:41:00,37.0,29.5,29.77,WNW,291,0.0,0.0,74,0.00,,---,0.00,VWS V14.00,2013-01-20 14:41:00,
2013-01-20 06:46:00,37.0,29.5,29.77,WNW,291,0.0,0.0,74,0.00,,---,0.00,VWS V14.00,2013-01-20 14:46:00,
2013-01-20 06:51:00,37.0,29.5,29.77,WNW,292,0.0,0.0,74,0.00,,---,0.00,VWS V14.00,2013-01-20 14:51:00,
2013-01-20 06:56:00,37.2,29.7,29.77,WNW,292,0.0,0.0,74,0.00,,---,0.00,VWS V14.00,2013-01-20 14:56:00,
2013-01-20 07:01:00,37.0,29.5,29.77,WNW,292,0.0,0.0,74,0.00,,---,0.00,VWS V14.00,2013-01-20 15:01:00,
2013-01-20 07:06:00,37.2,29.7,29.77,WNW,292,0.0,0.0,74,0.00,,---,0.00,VWS V14.00,2013-01-20 15:06:00,
2013-01-20 07:11:00,37.2,29.7,29.77,WNW,292,0.0,0.0,74,0.00,,---,0.00,VWS V14.00,2013-01-20 15:11:00,
2013-01-20 07:16:00,37.2,29.7,29.77,WNW,292,0.0,0.0,74,0.00,,---,0.00,VWS V14.00,2013-01-20 15:16:00,
2013-01-20 07:21:00,37.4,29.9,29.77,WNW,292,0.0,0.0,74,0.00,,---,0.00,VWS V14.00,2013-01-20 15:21:00,
2013-01-20 07:26:00,37.4,29.9,29.77,WNW,292,0.0,0.0,74,0.00,,---,0.00,VWS V14.00,2013-01-20 15:26:00,
2013-01-20 07:31:00,37.6,30.1,29.77,WNW,292,0.0,0.0,74,0.00,,---,0.00,VWS V14.00,2013-01-20 15:31:00,
2013-01-20 07:36:00,37.6,30.1,29.77,WNW,292,0.0,0.0,74,0.00,,---,0.00,VWS V14.00,2013-01-20 15:36:00,
2013-01-20 07:41:00,37.8,30.2,29.77,WNW,292,0.0,0.0,74,0.00,,---,0.00,VWS V14.00,2013-01-20 15:41:00,
2013-01-20 07:46:00,37.8,30.2,29.77,WNW,291,0.0,0.0,74,0.00,,---,0.00,VWS V14.00,2013-01-20 15:46:00,
2013-01-20 07:51:00,37.9,30.4,29.77,WNW,292,0.0,0.0,74,0.00,,---,0.00,VWS V14.00,2013-01-20 15:51:00,
2013-01-20 07:56:00,37.9,30.4,29.77,WNW,292,0.0,0.0,74,0.00,,---,0.00,VWS V14.00,2013-01-20 15:56:00,
2013-01-20 08:01:00,37.9,30.4,29.77,WNW,292,0.0,0.0,74,0.00,,---,0.00,VWS V14.00,2013-01-20 16:01:00,
2013-01-20 08:06:00,37.9,30.4,29.80,WNW,292,0.0,0.0,74,0.00,,---,0.00,VWS V14.00,2013-01-20 16:06:00,
2013-01-20 08:11:00,37.9,30.4,29.80,WNW,292,0.0,0.0,74,0.00,,---,0.00,VWS V14.00,2013-01-20 16:11:00,
2013-01-20 08:16:00,37.9,30.4,29.80,WNW,292,0.0,0.0,74,0.00,,---,0.00,VWS V14.00,2013-01-20 16:16:00,
2013-01-20 08:21:00,37.9,30.1,29.80,WNW,292,0.0,0.0,73,0.00,,---,0.00,VWS V14.00,2013-01-20 16:21:00,
2013-01-20 08:26:00,37.9,30.1,29.80,WNW,292,0.0,0.0,73,0.00,,---,0.00,VWS V14.00,2013-01-20 16:26:00,
2013-01-20 08:31:00,37.9,30.1,29.80,WNW,292,0.0,0.0,73,0.00,,---,0.00,VWS V14.00,2013-01-20 16:31:00,
2013-01-20 08:36:00,37.9,30.1,29.80,WNW,292,0.0,0.0,73,0.00,,---,0.00,VWS V14.00,2013-01-20 16:36:00,
2013-01-20 08:42:00,37.9,30.1,29.80,WNW,290,0.0,0.0,73,0.00,,---,0.00,VWS V14.00,2013-01-20 16:42:00,
2013-01-20 08:47:00,38.1,30.2,29.80,WNW,290,0.0,0.0,73,0.00,,---,0.00,VWS V14.00,2013-01-20 16:47:00,
2013-01-20 08:52:00,38.1,30.2,29.80,WNW,290,0.0,0.0,73,0.00,,---,0.00,VWS V14.00,2013-01-20 16:52:00,
2013-01-20 08:57:00,38.5,30.6,29.80,WNW,290,0.0,0.0,73,0.00,,---,0.00,VWS V14.00,2013-01-20 16:57:00,
2013-01-20 09:02:00,38.5,30.6,29.80,WNW,290,0.0,0.0,73,0.00,,---,0.00,VWS V14.00,2013-01-20 17:02:00,
2013-01-20 09:07:00,38.7,30.8,29.80,WNW,290,0.0,0.0,73,0.00,,---,0.00,VWS V14.00,2013-01-20 17:07:00,
2013-01-20 09:12:00,38.7,30.8,29.80,WNW,290,0.0,0.0,73,0.00,,---,0.00,VWS V14.00,2013-01-20 17:12:00,
2013-01-20 09:17:00,38.7,30.8,29.80,WNW,290,0.0,0.0,73,0.00,,---,0.00,VWS V14.00,2013-01-20 17:17:00,
2013-01-20 09:22:00,38.8,30.9,29.80,WNW,290,0.0,0.0,73,0.00,,---,0.00,VWS V14.00,2013-01-20 17:22:00,
2013-01-20 09:27:00,39.0,31.1,29.80,WNW,290,0.0,0.0,73,0.00,,---,0.00,VWS V14.00,2013-01-20 17:27:00,
2013-01-20 09:32:00,39.2,31.0,29.80,WNW,290,0.0,0.0,72,0.00,,---,0.00,VWS V14.00,2013-01-20 17:32:00,
2013-01-20 09:37:00,39.2,31.0,29.80,WNW,290,0.0,0.0,72,0.00,,---,0.00,VWS V14.00,2013-01-20 17:37:00,
2013-01-20 09:42:00,39.4,31.1,29.80,WNW,290,0.0,0.0,72,0.00,,---,0.00,VWS V14.00,2013-01-20 17:42:00,
2013-01-20 09:47:00,39.4,31.1,29.80,WNW,290,0.0,0.0,72,0.00,,---,0.00,VWS V14.00,2013-01-20 17:47:00,
2013-01-20 09:52:00,39.6,31.3,29.80,WNW,290,0.0,0.0,72,0.00,,---,0.00,VWS V14.00,2013-01-20 17:52:00,
2013-01-20 09:57:00,39.6,31.3,29.80,WNW,290,0.0,0.0,72,0.00,,---,0.00,VWS V14.00,2013-01-20 17:57:00,
2013-01-20 10:02:00,39.7,31.5,29.80,WNW,290,0.0,0.0,72,0.00,,---,0.00,VWS V14.00,2013-01-20 18:02:00,
2013-01-20 10:07:00,39.7,31.5,29.80,WNW,290,0.0,0.0,72,0.00,,---,0.00,VWS V14.00,2013-01-20 18:07:00,
2013-01-20 10:12:00,39.7,31.5,29.80,West,272,0.0,0.0,72,0.00,,---,0.00,VWS V14.00,2013-01-20 18:12:00,
2013-01-20 10:17:00,39.9,31.6,29.80,West,272,0.0,0.0,72,0.00,,---,0.00,VWS V14.00,2013-01-20 18:17:00,
2013-01-20 10:22:00,39.9,31.6,29.80,NW,306,0.0,0.0,72,0.00,,---,0.00,VWS V14.00,2013-01-20 18:22:00,
2013-01-20 10:27:00,40.3,32.0,29.80,WNW,292,0.0,0.0,72,0.00,,---,0.00,VWS V14.00,2013-01-20 18:27:00,
2013-01-20 10:32:00,40.3,32.0,29.80,WNW,292,0.0,0.0,72,0.00,,---,0.00,VWS V14.00,2013-01-20 18:32:00,
2013-01-20 10:37:00,40.5,32.2,29.80,WNW,292,0.0,0.0,72,0.00,,---,0.00,VWS V14.00,2013-01-20 18:37:00,
2013-01-20 10:42:00,40.6,32.3,29.80,WNW,292,0.0,0.0,72,0.00,,---,0.00,VWS V14.00,2013-01-20 18:42:00,
2013-01-20 10:47:00,40.8,32.5,29.80,WNW,292,0.0,0.0,72,0.00,,---,0.00,VWS V14.00,2013-01-20 18:47:00,
2013-01-20 10:52:00,41.0,32.7,29.80,WNW,292,0.0,0.0,72,0.00,,---,0.00,VWS V14.00,2013-01-20 18:52:00,
2013-01-20 10:57:00,41.2,32.5,29.80,WNW,292,0.0,0.0,71,0.00,,---,0.00,VWS V14.00,2013-01-20 18:57:00,
2013-01-20 11:02:00,41.2,32.5,29.80,NNW,334,0.0,0.0,71,0.00,,---,0.00,VWS V14.00,2013-01-20 19:02:00,
2013-01-20 11:07:00,41.5,32.8,29.80,West,270,0.0,0.0,71,0.00,,---,0.00,VWS V14.00,2013-01-20 19:07:00,
2013-01-20 11:12:00,41.5,32.8,29.80,West,270,0.0,0.0,71,0.00,,---,0.00,VWS V14.00,2013-01-20 19:12:00,
2013-01-20 11:17:00,41.5,32.8,29.80,West,270,0.0,0.0,71,0.00,,---,0.00,VWS V14.00,2013-01-20 19:17:00,
2013-01-20 11:22:00,41.7,33.0,29.80,West,278,0.0,0.0,71,0.00,,---,0.00,VWS V14.00,2013-01-20 19:22:00,
2013-01-20 11:27:00,41.7,32.7,29.80,West,265,0.0,0.0,70,0.00,,---,0.00,VWS V14.00,2013-01-20 19:27:00,
2013-01-20 11:32:00,41.9,32.8,29.77,WNW,292,0.0,0.0,70,0.00,,---,0.00,VWS V14.00,2013-01-20 19:32:00,
2013-01-20 11:37:00,42.1,33.4,29.77,NW,307,0.0,0.0,71,0.00,,---,0.00,VWS V14.00,2013-01-20 19:37:00,
2013-01-20 11:42:00,42.3,33.2,29.77,WNW,291,0.0,0.0,70,0.00,,---,0.00,VWS V14.00,2013-01-20 19:42:00,
2013-01-20 11:47:00,42.4,33.4,29.77,WNW,290,0.0,0.0,70,0.00,,---,0.00,VWS V14.00,2013-01-20 19:47:00,
2013-01-20 11:52:00,42.6,33.5,29.77,NW,307,0.0,0.0,70,0.00,,---,0.00,VWS V14.00,2013-01-20 19:52:00,
2013-01-20 11:58:00,42.8,33.7,29.77,WNW,289,0.0,0.0,70,0.00,,---,0.00,VWS V14.00,2013-01-20 19:58:00,
2013-01-20 12:03:00,42.8,33.3,29.77,West,278,0.0,0.0,69,0.00,,---,0.00,VWS V14.00,2013-01-20 20:03:00,
2013-01-20 12:07:00,42.8,33.3,29.77,WNW,284,0.0,0.0,69,0.00,,---,0.00,VWS V14.00,2013-01-20 20:07:00,
2013-01-20 12:12:00,43.0,33.5,29.77,WNW,289,0.0,0.0,69,0.00,,---,0.00,VWS V14.00,2013-01-20 20:12:00,
2013-01-20 12:18:00,43.2,33.7,29.77,West,274,0.0,0.0,69,0.00,,---,0.00,VWS V14.00,2013-01-20 20:18:00,
2013-01-20 12:23:00,43.3,33.9,29.77,West,275,0.0,0.0,69,0.00,,---,0.00,VWS V14.00,2013-01-20 20:23:00,
2013-01-20 12:28:00,43.3,33.9,29.77,West,279,0.0,0.0,69,0.00,,---,0.00,VWS V14.00,2013-01-20 20:28:00,
2013-01-20 12:33:00,43.5,34.0,29.74,West,279,0.0,0.0,69,0.00,,---,0.00,VWS V14.00,2013-01-20 20:33:00,
2013-01-20 12:38:00,43.7,34.2,29.74,WNW,285,0.0,0.0,69,0.00,,---,0.00,VWS V14.00,2013-01-20 20:38:00,
2013-01-20 12:43:00,43.9,34.4,29.74,SW,228,0.0,0.0,69,0.00,,---,0.00,VWS V14.00,2013-01-20 20:43:00,
2013-01-20 12:48:00,44.1,34.6,29.74,WSW,241,0.0,0.0,69,0.00,,---,0.00,VWS V14.00,2013-01-20 20:48:00,
2013-01-20 12:53:00,44.1,34.6,29.74,WSW,241,0.0,0.0,69,0.00,,---,0.00,VWS V14.00,2013-01-20 20:53:00,
2013-01-20 12:58:00,44.1,34.6,29.74,WSW,241,0.0,0.0,69,0.00,,---,0.00,VWS V14.00,2013-01-20 20:58:00,
2013-01-20 13:03:00,44.2,34.7,29.74,WSW,241,0.0,0.0,69,0.00,,---,0.00,VWS V14.00,2013-01-20 21:03:00,
2013-01-20 13:08:00,44.4,34.9,29.74,SSW,204,0.0,0.0,69,0.00,,---,0.00,VWS V14.00,2013-01-20 21:08:00,
2013-01-20 13:13:00,44.6,34.7,29.74,SSW,204,0.0,0.0,68,0.00,,---,0.00,VWS V14.00,2013-01-20 21:13:00,
2013-01-20 13:18:00,44.6,34.7,29.74,SSW,204,0.0,0.0,68,0.00,,---,0.00,VWS V14.00,2013-01-20 21:18:00,
2013-01-20 13:23:00,44.6,34.7,29.74,SSW,204,0.0,0.0,68,0.00,,---,0.00,VWS V14.00,2013-01-20 21:23:00,
2013-01-20 13:28:00,44.6,34.7,29.74,SSW,204,0.0,0.0,68,0.00,,---,0.00,VWS V14.00,2013-01-20 21:28:00,
2013-01-20 13:33:00,44.6,34.3,29.74,SSW,204,0.0,0.0,67,0.00,,---,0.00,VWS V14.00,2013-01-20 21:33:00,
2013-01-20 13:38:00,44.4,34.5,29.74,SSW,204,0.0,0.0,68,0.00,,---,0.00,VWS V14.00,2013-01-20 21:38:00,
2013-01-20 13:43:00,44.4,34.5,29.74,SSW,204,0.0,0.0,68,0.00,,---,0.00,VWS V14.00,2013-01-20 21:43:00,
2013-01-20 13:48:00,44.2,34.4,29.74,SSW,204,0.0,0.0,68,0.00,,---,0.00,VWS V14.00,2013-01-20 21:48:00,
2013-01-20 13:53:00,44.4,34.5,29.74,SSW,204,0.0,0.0,68,0.00,,---,0.00,VWS V14.00,2013-01-20 21:53:00,
2013-01-20 13:58:00,45.0,35.4,29.74,SSW,204,0.0,0.0,69,0.00,,---,0.00,VWS V14.00,2013-01-20 21:58:00,
2013-01-20 14:03:00,45.5,35.9,29.74,SSW,204,0.0,0.0,69,0.00,,---,0.00,VWS V14.00,2013-01-20 22:03:00,
2013-01-20 14:08:00,45.5,35.6,29.71,SSW,204,0.0,0.0,68,0.00,,---,0.00,VWS V14.00,2013-01-20 22:08:00,
2013-01-20 14:13:00,45.5,35.2,29.71,SSE,163,0.0,0.0,67,0.00,,---,0.00,VWS V14.00,2013-01-20 22:13:00,
2013-01-20 14:18:00,45.7,35.0,29.71,SSE,163,0.0,0.0,66,0.00,,---,0.00,VWS V14.00,2013-01-20 22:18:00,
2013-01-20 14:23:00,45.9,35.2,29.71,SSE,163,0.0,0.0,66,0.00,,---,0.00,VWS V14.00,2013-01-20 22:23:00,
2013-01-20 14:28:00,46.0,35.3,29.71,SSE,164,0.0,0.0,66,0.00,,---,0.00,VWS V14.00,2013-01-20 22:28:00,
2013-01-20 14:33:00,46.0,35.3,29.71,SSE,164,0.0,0.0,66,0.00,,---,0.00,VWS V14.00,2013-01-20 22:33:00,
2013-01-20 14:38:00,45.9,35.2,29.71,SSE,164,0.0,0.0,66,0.00,,---,0.00,VWS V14.00,2013-01-20 22:38:00,
2013-01-20 14:43:00,45.9,35.2,29.71,SSE,164,0.0,0.0,66,0.00,,---,0.00,VWS V14.00,2013-01-20 22:43:00,
2013-01-20 14:48:00,45.9,35.2,29.71,SSE,164,0.0,0.0,66,0.00,,---,0.00,VWS V14.00,2013-01-20 22:48:00,
2013-01-20 14:53:00,45.3,34.6,29.71,SSE,164,0.0,0.0,66,0.00,,---,0.00,VWS V14.00,2013-01-20 22:53:00,
2013-01-20 14:58:00,45.3,35.0,29.71,SSE,164,0.0,0.0,67,0.00,,---,0.00,VWS V14.00,2013-01-20 22:58:00,
2013-01-20 15:03:00,45.1,34.8,29.71,SSE,164,0.0,0.0,67,0.00,,---,0.00,VWS V14.00,2013-01-20 23:03:00,
2013-01-20 15:08:00,45.3,35.0,29.71,SSE,164,0.0,0.0,67,0.00,,---,0.00,VWS V14.00,2013-01-20 23:08:00,
2013-01-20 15:13:00,45.3,34.6,29.71,SSE,164,0.0,0.0,66,0.00,,---,0.00,VWS V14.00,2013-01-20 23:13:00,
2013-01-20 15:18:00,45.0,34.3,29.71,SSE,164,0.0,0.0,66,0.00,,---,0.00,VWS V14.00,2013-01-20 23:18:00,
2013-01-20 15:23:00,45.0,34.7,29.71,SSE,164,0.0,0.0,67,0.00,,---,0.00,VWS V14.00,2013-01-20 23:23:00,
2013-01-20 15:28:00,45.0,35.0,29.71,SSE,163,0.0,0.0,68,0.00,,---,0.00,VWS V14.00,2013-01-20 23:28:00,
2013-01-20 15:33:00,45.1,35.2,29.71,SSE,164,0.0,0.0,68,0.00,,---,0.00,VWS V14.00,2013-01-20 23:33:00,
2013-01-20 15:38:00,45.3,35.4,29.71,SSE,164,0.0,0.0,68,0.00,,---,0.00,VWS V14.00,2013-01-20 23:38:00,
2013-01-20 15:43:00,45.3,35.4,29.71,SSE,164,0.0,0.0,68,0.00,,---,0.00,VWS V14.00,2013-01-20 23:43:00,
2013-01-20 15:48:00,45.3,35.4,29.71,SSE,164,0.0,0.0,68,0.00,,---,0.00,VWS V14.00,2013-01-20 23:48:00,
2013-01-20 15:53:00,45.3,35.0,29.71,SSE,163,0.0,0.0,67,0.00,,---,0.00,VWS V14.00,2013-01-20 23:53:00,
2013-01-20 15:58:00,45.3,35.0,29.71,SSE,164,0.0,0.0,67,0.00,,---,0.00,VWS V14.00,2013-01-20 23:58:00,
2013-01-20 16:03:00,45.3,35.0,29.71,SSE,164,0.0,0.0,67,0.00,,---,0.00,VWS V14.00,2013-01-21 00:03:00,
2013-01-20 16:08:00,45.1,34.8,29.71,SSE,164,0.0,0.0,67,0.00,,---,0.00,VWS V14.00,2013-01-21 00:08:00,
2013-01-20 16:13:00,45.0,34.7,29.71,SSE,164,0.0,0.0,67,0.00,,---,0.00,VWS V14.00,2013-01-21 00:13:00,
2013-01-20 16:19:00,44.8,34.5,29.71,SSE,164,0.0,0.0,67,0.00,,---,0.00,VWS V14.00,2013-01-21 00:19:00,
2013-01-20 16:24:00,44.6,34.3,29.71,SSE,164,0.0,0.0,67,0.00,,---,0.00,VWS V14.00,2013-01-21 00:24:00,
2013-01-20 16:29:00,44.4,34.5,29.71,SSE,164,0.0,0.0,68,0.00,,---,0.00,VWS V14.00,2013-01-21 00:29:00,
2013-01-20 16:34:00,44.4,34.5,29.71,SSE,164,0.0,0.0,68,0.00,,---,0.00,VWS V14.00,2013-01-21 00:34:00,
2013-01-20 16:39:00,44.2,34.4,29.71,SSE,164,0.0,0.0,68,0.00,,---,0.00,VWS V14.00,2013-01-21 00:39:00,
2013-01-20 16:44:00,44.1,34.2,29.71,SSE,164,0.0,0.0,68,0.00,,---,0.00,VWS V14.00,2013-01-21 00:44:00,
2013-01-20 16:49:00,43.9,34.0,29.71,SSE,164,0.0,0.0,68,0.00,,---,0.00,VWS V14.00,2013-01-21 00:49:00,
2013-01-20 16:54:00,43.9,34.0,29.71,SSE,164,0.0,0.0,68,0.00,,---,0.00,VWS V14.00,2013-01-21 00:54:00,
2013-01-20 16:59:00,43.7,33.8,29.71,SSE,164,0.0,0.0,68,0.00,,---,0.00,VWS V14.00,2013-01-21 00:59:00,
2013-01-20 17:04:00,43.7,33.8,29.71,SSE,164,0.0,0.0,68,0.00,,---,0.00,VWS V14.00,2013-01-21 01:04:00,
2013-01-20 17:09:00,43.5,33.7,29.71,SSE,164,0.0,0.0,68,0.00,,---,0.00,VWS V14.00,2013-01-21 01:09:00,
2013-01-20 17:14:00,43.3,33.5,29.71,SSE,164,0.0,0.0,68,0.00,,---,0.00,VWS V14.00,2013-01-21 01:14:00,
2013-01-20 17:19:00,43.2,33.3,29.71,SSE,164,0.0,0.0,68,0.00,,---,0.00,VWS V14.00,2013-01-21 01:19:00,
2013-01-20 17:24:00,43.0,33.2,29.71,SSE,164,0.0,0.0,68,0.00,,---,0.00,VWS V14.00,2013-01-21 01:24:00,
2013-01-20 17:29:00,43.0,33.2,29.71,SSE,164,0.0,0.0,68,0.00,,---,0.00,VWS V14.00,2013-01-21 01:29:00,
2013-01-20 17:34:00,42.8,33.0,29.71,SSE,164,0.0,0.0,68,0.00,,---,0.00,VWS V14.00,2013-01-21 01:34:00,
2013-01-20 17:39:00,42.8,33.0,29.71,SSE,164,0.0,0.0,68,0.00,,---,0.00,VWS V14.00,2013-01-21 01:39:00,
2013-01-20 17:44:00,42.6,32.8,29.71,SSE,164,0.0,0.0,68,0.00,,---,0.00,VWS V14.00,2013-01-21 01:44:00,
2013-01-20 17:49:00,42.4,32.6,29.68,SSE,164,0.0,0.0,68,0.00,,---,0.00,VWS V14.00,2013-01-21 01:49:00,
2013-01-20 17:54:00,42.4,32.6,29.68,SSE,164,0.0,0.0,68,0.00,,---,0.00,VWS V14.00,2013-01-21 01:54:00,
2013-01-20 17:59:00,42.1,31.9,29.68,SSE,164,0.0,0.0,67,0.00,,---,0.00,VWS V14.00,2013-01-21 01:59:00,
2013-01-20 18:04:00,42.1,31.9,29.68,SSE,164,0.0,0.0,67,0.00,,---,0.00,VWS V14.00,2013-01-21 02:04:00,
2013-01-20 18:09:00,41.9,31.8,29.68,SSE,164,0.0,0.0,67,0.00,,---,0.00,VWS V14.00,2013-01-21 02:09:00,
2013-01-20 18:14:00,41.7,31.6,29.68,SSE,164,0.0,0.0,67,0.00,,---,0.00,VWS V14.00,2013-01-21 02:14:00,
2013-01-20 18:19:00,41.7,31.6,29.68,SSE,164,0.0,0.0,67,0.00,,---,0.00,VWS V14.00,2013-01-21 02:19:00,
2013-01-20 18:24:00,41.5,31.4,29.68,SSE,164,0.0,0.0,67,0.00,,---,0.00,VWS V14.00,2013-01-21 02:24:00,
2013-01-20 18:29:00,41.5,31.4,29.68,SSE,164,0.0,0.0,67,0.00,,---,0.00,VWS V14.00,2013-01-21 02:29:00,
2013-01-20 18:34:00,41.4,31.2,29.68,SSE,164,0.0,0.0,67,0.00,,---,0.00,VWS V14.00,2013-01-21 02:34:00,
2013-01-20 18:39:00,41.4,31.2,29.68,SSE,164,0.0,0.0,67,0.00,,---,0.00,VWS V14.00,2013-01-21 02:39:00,
2013-01-20 18:44:00,41.2,31.1,29.68,SSE,164,0.0,0.0,67,0.00,,---,0.00,VWS V14.00,2013-01-21 02:44:00,
2013-01-20 18:49:00,41.2,31.1,29.68,SSE,164,0.0,0.0,67,0.00,,---,0.00,VWS V14.00,2013-01-21 02:49:00,
2013-01-20 18:54:00,41.2,31.1,29.68,SSE,164,0.0,0.0,67,0.00,,---,0.00,VWS V14.00,2013-01-21 02:54:00,
2013-01-20 18:59:00,41.0,30.9,29.68,SSE,164,0.0,0.0,67,0.00,,---,0.00,VWS V14.00,2013-01-21 02:59:00,
2013-01-20 19:04:00,40.8,30.7,29.68,SSE,163,0.0,0.0,67,0.00,,---,0.00,VWS V14.00,2013-01-21 03:04:00,
2013-01-20 19:09:00,40.8,30.7,29.68,SSE,164,0.0,0.0,67,0.00,,---,0.00,VWS V14.00,2013-01-21 03:09:00,
2013-01-20 19:15:00,40.8,30.7,29.68,SSE,164,0.0,0.0,67,0.00,,---,0.00,VWS V14.00,2013-01-21 03:15:00,
2013-01-20 19:20:00,40.8,30.7,29.68,SSE,164,0.0,0.0,67,0.00,,---,0.00,VWS V14.00,2013-01-21 03:20:00,
2013-01-20 19:25:00,40.8,30.7,29.68,SSE,164,0.0,0.0,67,0.00,,---,0.00,VWS V14.00,2013-01-21 03:25:00,
2013-01-20 19:30:00,40.8,30.7,29.68,SSE,164,0.0,0.0,67,0.00,,---,0.00,VWS V14.00,2013-01-21 03:30:00,
2013-01-20 19:35:00,40.6,30.5,29.68,SSE,164,0.0,0.0,67,0.00,,---,0.00,VWS V14.00,2013-01-21 03:35:00,
2013-01-20 19:40:00,40.5,30.4,29.68,SSE,164,0.0,0.0,67,0.00,,---,0.00,VWS V14.00,2013-01-21 03:40:00,
2013-01-20 19:45:00,40.5,30.4,29.68,SSE,164,0.0,0.0,67,0.00,,---,0.00,VWS V14.00,2013-01-21 03:45:00,
2013-01-20 19:50:00,40.3,30.2,29.68,SSE,164,0.0,0.0,67,0.00,,---,0.00,VWS V14.00,2013-01-21 03:50:00,
2013-01-20 19:55:00,40.1,30.0,29.68,SSE,164,0.0,0.0,67,0.00,,---,0.00,VWS V14.00,2013-01-21 03:55:00,
2013-01-20 20:00:00,39.9,29.9,29.68,SSE,163,0.0,0.0,67,0.00,,---,0.00,VWS V14.00,2013-01-21 04:00:00,
2013-01-20 20:05:00,39.7,29.3,29.68,SSE,164,0.0,0.0,66,0.00,,---,0.00,VWS V14.00,2013-01-21 04:05:00,
2013-01-20 20:10:00,39.7,29.3,29.68,SSE,164,0.0,0.0,66,0.00,,---,0.00,VWS V14.00,2013-01-21 04:10:00,
2013-01-20 20:15:00,39.7,29.3,29.68,SSE,164,0.0,0.0,66,0.00,,---,0.00,VWS V14.00,2013-01-21 04:15:00,
2013-01-20 20:20:00,39.6,29.1,29.68,SSE,164,0.0,0.0,66,0.00,,---,0.00,VWS V14.00,2013-01-21 04:20:00,
2013-01-20 20:25:00,39.4,29.0,29.68,SSE,164,0.0,0.0,66,0.00,,---,0.00,VWS V14.00,2013-01-21 04:25:00,
2013-01-20 20:30:00,39.4,29.0,29.68,SSE,164,0.0,0.0,66,0.00,,---,0.00,VWS V14.00,2013-01-21 04:30:00,
2013-01-20 20:35:00,39.2,28.8,29.68,SSE,164,0.0,0.0,66,0.00,,---,0.00,VWS V14.00,2013-01-21 04:35:00,
2013-01-20 20:40:00,39.2,28.8,29.68,SSE,163,0.0,0.0,66,0.00,,---,0.00,VWS V14.00,2013-01-21 04:40:00,
2013-01-20 20:45:00,39.2,28.8,29.68,SSE,164,0.0,0.0,66,0.00,,---,0.00,VWS V14.00,2013-01-21 04:45:00,
2013-01-20 20:50:00,39.2,29.2,29.68,SSE,163,0.0,0.0,67,0.00,,---,0.00,VWS V14.00,2013-01-21 04:50:00,
2013-01-20 20:55:00,39.2,29.2,29.68,SSE,164,0.0,0.0,67,0.00,,---,0.00,VWS V14.00,2013-01-21 04:55:00,
2013-01-20 21:00:00,39.2,29.2,29.68,SSE,164,0.0,0.0,67,0.00,,---,0.00,VWS V14.00,2013-01-21 05:00:00,
2013-01-20 21:03:00,39.2,29.2,29.68,SSE,164,0.0,0.0,67,0.00,,---,0.00,VWS V14.00,2013-01-21 05:03:00,
2013-01-20 21:04:00,39.2,29.2,29.68,SSE,164,0.0,0.0,67,0.00,,---,0.00,VWS V14.00,2013-01-21 05:04:00,
2013-01-20 21:09:00,39.0,29.0,29.68,SSE,164,0.0,0.0,67,0.00,,---,0.00,VWS V14.00,2013-01-21 05:09:00,
2013-01-20 21:14:00,39.0,29.0,29.68,SSE,164,0.0,0.0,67,0.00,,---,0.00,VWS V14.00,2013-01-21 05:14:00,
2013-01-20 21:19:00,38.8,28.8,29.68,SSE,164,0.0,0.0,67,0.00,,---,0.00,VWS V14.00,2013-01-21 05:19:00,
2013-01-20 21:24:00,38.8,28.8,29.68,SSE,164,0.0,0.0,67,0.00,,---,0.00,VWS V14.00,2013-01-21 05:24:00,
2013-01-20 21:29:00,38.8,29.2,29.68,SSE,164,0.0,0.0,68,0.00,,---,0.00,VWS V14.00,2013-01-21 05:29:00,
2013-01-20 21:34:00,38.7,28.7,29.68,SSE,164,0.0,0.0,67,0.00,,---,0.00,VWS V14.00,2013-01-21 05:34:00,
2013-01-20 21:39:00,38.7,29.0,29.68,SSE,164,0.0,0.0,68,0.00,,---,0.00,VWS V14.00,2013-01-21 05:39:00,
2013-01-20 21:44:00,38.7,29.0,29.68,SSE,164,0.0,0.0,68,0.00,,---,0.00,VWS V14.00,2013-01-21 05:44:00,
2013-01-20 21:49:00,38.7,29.0,29.68,SSE,164,0.0,0.0,68,0.00,,---,0.00,VWS V14.00,2013-01-21 05:49:00,
2013-01-20 21:54:00,38.8,29.2,29.68,SSE,164,0.0,0.0,68,0.00,,---,0.00,VWS V14.00,2013-01-21 05:54:00,
2013-01-20 21:59:00,39.0,29.7,29.68,SSE,164,0.0,0.0,69,0.00,,---,0.00,VWS V14.00,2013-01-21 05:59:00,
2013-01-20 22:04:00,38.8,29.2,29.68,SSE,164,0.0,0.0,68,0.00,,---,0.00,VWS V14.00,2013-01-21 06:04:00,
2013-01-20 22:09:00,38.8,29.2,29.68,SSE,164,0.0,0.0,68,0.00,,---,0.00,VWS V14.00,2013-01-21 06:09:00,
2013-01-20 22:14:00,38.8,29.2,29.68,SSE,164,0.0,0.0,68,0.00,,---,0.00,VWS V14.00,2013-01-21 06:14:00,
2013-01-20 22:19:00,38.7,29.0,29.68,SSE,164,0.0,0.0,68,0.00,,---,0.00,VWS V14.00,2013-01-21 06:19:00,
2013-01-20 22:24:00,38.8,29.5,29.68,SSE,164,0.0,0.0,69,0.00,,---,0.00,VWS V14.00,2013-01-21 06:24:00,
2013-01-20 22:29:00,38.8,29.5,29.68,SSE,164,0.0,0.0,69,0.00,,---,0.00,VWS V14.00,2013-01-21 06:29:00,
2013-01-20 22:34:00,38.7,29.4,29.68,SSE,164,0.0,0.0,69,0.00,,---,0.00,VWS V14.00,2013-01-21 06:34:00,
2013-01-20 22:39:00,38.7,29.4,29.68,SSE,164,0.0,0.0,69,0.00,,---,0.00,VWS V14.00,2013-01-21 06:39:00,
2013-01-20 22:44:00,38.7,29.4,29.68,SSE,164,0.0,0.0,69,0.00,,---,0.00,VWS V14.00,2013-01-21 06:44:00,
2013-01-20 22:49:00,38.7,29.4,29.68,SSE,164,0.0,0.0,69,0.00,,---,0.00,VWS V14.00,2013-01-21 06:49:00,
2013-01-20 22:54:00,38.5,29.2,29.68,SSE,164,0.0,0.0,69,0.00,,---,0.00,VWS V14.00,2013-01-21 06:54:00,
2013-01-20 22:59:00,38.5,29.2,29.68,SSE,164,0.0,0.0,69,0.00,,---,0.00,VWS V14.00,2013-01-21 06:59:00,
2013-01-20 23:04:00,38.5,29.2,29.68,SSE,164,0.0,0.0,69,0.00,,---,0.00,VWS V14.00,2013-01-21 07:04:00,
2013-01-20 23:09:00,38.5,29.2,29.68,SSE,164,0.0,0.0,69,0.00,,---,0.00,VWS V14.00,2013-01-21 07:09:00,
2013-01-20 23:14:00,38.5,29.2,29.68,SSE,164,0.0,0.0,69,0.00,,---,0.00,VWS V14.00,2013-01-21 07:14:00,
2013-01-20 23:19:00,38.5,29.2,29.68,SSE,164,0.0,0.0,69,0.00,,---,0.00,VWS V14.00,2013-01-21 07:19:00,
2013-01-20 23:24:00,38.5,29.2,29.68,SSE,164,0.0,0.0,69,0.00,,---,0.00,VWS V14.00,2013-01-21 07:24:00,
2013-01-20 23:30:00,38.3,29.0,29.68,SSE,164,0.0,0.0,69,0.00,,---,0.00,VWS V14.00,2013-01-21 07:30:00,
2013-01-20 23:35:00,38.3,29.0,29.68,SSE,164,0.0,0.0,69,0.00,,---,0.00,VWS V14.00,2013-01-21 07:35:00,
2013-01-20 23:40:00,38.1,28.9,29.68,SSE,164,0.0,0.0,69,0.00,,---,0.00,VWS V14.00,2013-01-21 07:40:00,
2013-01-20 23:45:00,38.1,28.9,29.68,SSE,164,0.0,0.0,69,0.00,,---,0.00,VWS V14.00,2013-01-21 07:45:00,
2013-01-20 23:50:00,38.1,28.9,29.68,SSE,164,0.0,0.0,69,0.00,,---,0.00,VWS V14.00,2013-01-21 07:50:00,
2013-01-20 23:55:00,37.9,28.7,29.68,SSE,164,0.0,0.0,69,0.00,,---,0.00,VWS V14.00,2013-01-21 07:55:00,